Indian River, MI (49749)

9:56 AM EDT on September 02, 2015 (GMT -0400)
Northwest Burt Lake | | Change Station
CLOSE
Current Station
Personal Weather Station
Location: Brutus, MI
Elevation: 626 ft
Nearby Weather Stations

Elev 626 ft 45.51 °N, 84.70 °W | Updated 9 minutes ago

Partly Cloudy
Partly Cloudy
76.4 °F
Feels Like 77 °F
N
0.0
Wind Variable Wind from East
Gusts 2.0 mph

Today
High -- | Low -- °F
--% Chance of Precip.
Yesterday
High -- | Low -- °F
Precip. -- in
7:00 AM 8:14 PM
Waning Gibbous, 80% visible
Pressure 29.98 in
Visibility 7.0 miles
Clouds Scattered Clouds 4800 ft
Heat Index 77 °F
Dew Point 72 °F
Humidity 87%
Rainfall 0.00 in
Snow Depth Not available.
UV 2 out of 12
Pollen 10.20 out of 12
Air Quality Not available.
Flu Activity Not available.
METAR KPLN 021354Z AUTO 00000KT 7SM SCT048 25/22 A2999 RMK AO2 SLP152 T02500217
Pressure 29.98 in
Visibility 7.0 miles
Clouds Scattered Clouds 4800 ft
Heat Index 77 °F
Dew Point 72 °F
Humidity 87%
Rainfall 0.00 in
Snow Depth Not available.
UV 2 out of 12
Pollen 10.20 out of 12
Air Quality Not available.
Flu Activity Not available.
METAR KPLN 021354Z AUTO 00000KT 7SM SCT048 25/22 A2999 RMK AO2 SLP152 T02500217
Nowcast | as of 9:00 am EDT on September 2, 2015

At 10 am...partly cloudy. Temperature 72. Light winds. At 12 PM...partly cloudy. Temperature 77. North winds 6 mph. At 2 PM...partly cloudy. Temperature 80. North winds 6 mph. At 4 PM...partly cloudy. Temperature 80. North winds 6 mph.

×

10-Day Weather Forecast

×

Almanac

Astronomy

Sep. 02, 2015 Rise Set
Actual Time
Civil Twilight
Nautical Twilight
Astronomical Twilight
Moon
Length of Visible Light
Length of Day
Tomorrow will be .
, % of the Moon is Illuminated

Today's Extremes

State Highs State Lows

Community

WunderPhotos

Upload Photos

1,851,754 photos uploaded!

WunderBlogs® & News

Nearby

Air Quality

  Air Quality AQ Index Pollutant
Not available.

Snow Depth

Station Depth Elevation

Earthquake Activity

City Distance Mag. Time & Date
Minimum magnitude displayed is 2.5.

Coastal Water Temperatures

Place Temperature

Stations

Nearby Weather Stations

Station Location Temp. Windchill Dew Point Humidity Wind Precip. Elev Updated Type